sensor_id;sensor_type;location;lat;lon;timestamp;pressure;altitude;pressure_sealevel;temperature;humidity
54850;BME280;47660;51.334;12.396;2023-03-25T00:02:00;99110.47;;;15.73;91.39
54850;BME280;47660;51.334;12.396;2023-03-25T00:04:26;99112.88;;;15.84;90.18
54850;BME280;47660;51.334;12.396;2023-03-25T00:06:54;99106.94;;;15.29;94.42
54850;BME280;47660;51.334;12.396;2023-03-25T00:09:20;99092.19;;;15.25;94.43
54850;BME280;47660;51.334;12.396;2023-03-25T00:11:49;99091.78;;;15.47;92.90
54850;BME280;47660;51.334;12.396;2023-03-25T00:14:14;99083.91;;;15.45;92.31
54850;BME280;47660;51.334;12.396;2023-03-25T00:16:42;99082.44;;;14.90;96.45
54850;BME280;47660;51.334;12.396;2023-03-25T00:19:13;99082.31;;;16.03;91.87
54850;BME280;47660;51.334;12.396;2023-03-25T00:21:40;99076.97;;;15.69;91.79
54850;BME280;47660;51.334;12.396;2023-03-25T00:24:11;99085.50;;;16.15;87.47
54850;BME280;47660;51.334;12.396;2023-03-25T00:26:41;99080.31;;;15.63;90.58
54850;BME280;47660;51.334;12.396;2023-03-25T00:29:10;99086.63;;;15.19;95.97
54850;BME280;47660;51.334;12.396;2023-03-25T00:31:36;99084.25;;;15.50;92.23
54850;BME280;47660;51.334;12.396;2023-03-25T00:34:01;99084.88;;;15.79;90.38
54850;BME280;47660;51.334;12.396;2023-03-25T00:36:29;99085.91;;;15.43;92.78
54850;BME280;47660;51.334;12.396;2023-03-25T00:38:56;99084.88;;;15.36;91.09
54850;BME280;47660;51.334;12.396;2023-03-25T00:41:25;99083.16;;;16.21;86.22
54850;BME280;47660;51.334;12.396;2023-03-25T00:43:53;99091.00;;;15.97;87.43
54850;BME280;47660;51.334;12.396;2023-03-25T00:46:18;99089.88;;;16.99;80.16
54850;BME280;47660;51.334;12.396;2023-03-25T00:48:44;99090.22;;;15.79;87.16
54850;BME280;47660;51.334;12.396;2023-03-25T00:51:10;99078.47;;;16.39;84.36
54850;BME280;47660;51.334;12.396;2023-03-25T00:53:38;99074.97;;;16.30;84.74
54850;BME280;47660;51.334;12.396;2023-03-25T00:56:03;99076.97;;;16.86;79.37
54850;BME280;47660;51.334;12.396;2023-03-25T00:58:31;99082.47;;;15.67;85.77
54850;BME280;47660;51.334;12.396;2023-03-25T01:00:59;99080.16;;;15.72;86.87
54850;BME280;47660;51.334;12.396;2023-03-25T01:03:26;99075.06;;;15.96;86.72
54850;BME280;47660;51.334;12.396;2023-03-25T01:05:53;99074.88;;;15.46;85.38
54850;BME280;47660;51.334;12.396;2023-03-25T01:08:21;99068.28;;;16.43;81.55
54850;BME280;47660;51.334;12.396;2023-03-25T01:10:54;99061.16;;;15.49;86.06
54850;BME280;47660;51.334;12.396;2023-03-25T01:13:20;99063.97;;;15.05;91.22
54850;BME280;47660;51.334;12.396;2023-03-25T01:15:46;99068.06;;;15.52;86.85
54850;BME280;47660;51.334;12.396;2023-03-25T01:18:14;99064.53;;;16.02;83.10
54850;BME280;47660;51.334;12.396;2023-03-25T01:20:40;99064.03;;;16.07;82.75
54850;BME280;47660;51.334;12.396;2023-03-25T01:23:05;99057.50;;;16.01;82.17
54850;BME280;47660;51.334;12.396;2023-03-25T01:25:32;99051.34;;;15.66;85.54
54850;BME280;47660;51.334;12.396;2023-03-25T01:27:57;99051.84;;;16.29;79.33
54850;BME280;47660;51.334;12.396;2023-03-25T01:30:23;99047.44;;;16.78;76.50
54850;BME280;47660;51.334;12.396;2023-03-25T01:32:48;99048.47;;;16.19;78.69
54850;BME280;47660;51.334;12.396;2023-03-25T01:35:14;99043.91;;;15.95;78.91
54850;BME280;47660;51.334;12.396;2023-03-25T01:37:42;99049.00;;;15.63;80.90
54850;BME280;47660;51.334;12.396;2023-03-25T01:40:18;99043.78;;;16.21;78.29
54850;BME280;47660;51.334;12.396;2023-03-25T01:42:44;99043.69;;;15.80;78.16
54850;BME280;47660;51.334;12.396;2023-03-25T01:45:31;99029.88;;;16.17;77.00
54850;BME280;47660;51.334;12.396;2023-03-25T01:48:07;99028.38;;;16.23;79.05
54850;BME280;47660;51.334;12.396;2023-03-25T01:50:40;99019.09;;;15.84;79.43
54850;BME280;47660;51.334;12.396;2023-03-25T01:53:10;99013.28;;;15.97;77.32
54850;BME280;47660;51.334;12.396;2023-03-25T01:55:41;99012.69;;;16.93;73.16
54850;BME280;47660;51.334;12.396;2023-03-25T01:58:11;99014.78;;;16.08;77.45
54850;BME280;47660;51.334;12.396;2023-03-25T02:00:42;99016.53;;;15.74;80.08
54850;BME280;47660;51.334;12.396;2023-03-25T02:03:09;99000.81;;;15.71;80.77
54850;BME280;47660;51.334;12.396;2023-03-25T02:05:38;99011.16;;;15.66;78.24
54850;BME280;47660;51.334;12.396;2023-03-25T02:08:06;99019.19;;;15.66;78.61
54850;BME280;47660;51.334;12.396;2023-03-25T02:10:44;99008.13;;;16.37;74.95
54850;BME280;47660;51.334;12.396;2023-03-25T02:13:11;99006.09;;;15.89;76.63
54850;BME280;47660;51.334;12.396;2023-03-25T02:24:23;98998.53;;;16.51;72.98
54850;BME280;47660;51.334;12.396;2023-03-25T02:38:40;98984.47;;;16.57;76.03
54850;BME280;47660;51.334;12.396;2023-03-25T02:41:22;98990.09;;;16.71;74.32
54850;BME280;47660;51.334;12.396;2023-03-25T02:43:54;98992.03;;;16.29;76.86
54850;BME280;47660;51.334;12.396;2023-03-25T02:46:22;98993.03;;;16.36;75.41
54850;BME280;47660;51.334;12.396;2023-03-25T02:48:59;98984.47;;;15.99;78.01
54850;BME280;47660;51.334;12.396;2023-03-25T02:51:37;98996.22;;;16.07;77.03
54850;BME280;47660;51.334;12.396;2023-03-25T02:54:09;98994.53;;;15.97;79.04
54850;BME280;47660;51.334;12.396;2023-03-25T02:56:37;98999.22;;;16.37;76.18
54850;BME280;47660;51.334;12.396;2023-03-25T02:59:05;98998.22;;;15.37;82.35
54850;BME280;47660;51.334;12.396;2023-03-25T03:01:32;98985.66;;;15.88;79.38
54850;BME280;47660;51.334;12.396;2023-03-25T03:03:59;98989.78;;;15.83;81.46
54850;BME280;47660;51.334;12.396;2023-03-25T03:06:25;98991.78;;;14.87;87.16
54850;BME280;47660;51.334;12.396;2023-03-25T03:09:04;98990.63;;;15.75;83.71
54850;BME280;47660;51.334;12.396;2023-03-25T03:11:59;98988.34;;;16.22;80.04
54850;BME280;47660;51.334;12.396;2023-03-25T03:14:59;98987.94;;;15.24;85.69
54850;BME280;47660;51.334;12.396;2023-03-25T03:17:45;98974.81;;;15.39;86.95
54850;BME280;47660;51.334;12.396;2023-03-25T03:33:25;98983.97;;;16.12;78.60
54850;BME280;47660;51.334;12.396;2023-03-25T03:35:58;98985.31;;;16.08;79.60
54850;BME280;47660;51.334;12.396;2023-03-25T03:38:28;98986.13;;;16.17;78.42
54850;BME280;47660;51.334;12.396;2023-03-25T03:40:58;98983.22;;;15.69;82.21
54850;BME280;47660;51.334;12.396;2023-03-25T03:43:41;98981.59;;;15.84;79.62
54850;BME280;47660;51.334;12.396;2023-03-25T03:46:16;98996.53;;;15.95;79.46
54850;BME280;47660;51.334;12.396;2023-03-25T03:48:54;98986.47;;;16.30;79.01
54850;BME280;47660;51.334;12.396;2023-03-25T03:54:21;98994.19;;;16.25;77.43
54850;BME280;47660;51.334;12.396;2023-03-25T03:59:54;99001.03;;;16.61;76.21
54850;BME280;47660;51.334;12.396;2023-03-25T04:04:49;99014.69;;;15.67;77.76
54850;BME280;47660;51.334;12.396;2023-03-25T04:07:21;99010.06;;;15.85;74.90
54850;BME280;47660;51.334;12.396;2023-03-25T04:09:56;99025.03;;;15.10;76.00
54850;BME280;47660;51.334;12.396;2023-03-25T04:12:31;99025.25;;;14.91;75.05
54850;BME280;47660;51.334;12.396;2023-03-25T04:15:02;99019.59;;;15.28;74.10
54850;BME280;47660;51.334;12.396;2023-03-25T04:17:28;99023.72;;;15.23;73.57
54850;BME280;47660;51.334;12.396;2023-03-25T04:19:55;99023.84;;;15.48;71.78
54850;BME280;47660;51.334;12.396;2023-03-25T04:22:20;99017.41;;;15.75;69.99
54850;BME280;47660;51.334;12.396;2023-03-25T04:24:47;99025.34;;;15.50;69.98
54850;BME280;47660;51.334;12.396;2023-03-25T04:27:19;99014.53;;;15.77;69.53
54850;BME280;47660;51.334;12.396;2023-03-25T04:29:47;99026.00;;;15.87;68.34
54850;BME280;47660;51.334;12.396;2023-03-25T04:32:13;99031.84;;;15.39;68.99
54850;BME280;47660;51.334;12.396;2023-03-25T04:34:40;99036.63;;;15.62;68.32
54850;BME280;47660;51.334;12.396;2023-03-25T04:37:05;99039.75;;;16.00;66.40
54850;BME280;47660;51.334;12.396;2023-03-25T04:39:31;99052.22;;;15.75;66.03
54850;BME280;47660;51.334;12.396;2023-03-25T04:41:58;99053.88;;;15.68;66.25
54850;BME280;47660;51.334;12.396;2023-03-25T04:44:28;99042.78;;;16.22;64.73
54850;BME280;47660;51.334;12.396;2023-03-25T04:46:58;99040.91;;;16.06;64.06
54850;BME280;47660;51.334;12.396;2023-03-25T04:49:26;99051.84;;;15.62;64.24
54850;BME280;47660;51.334;12.396;2023-03-25T04:51:54;99057.53;;;16.10;63.61
54850;BME280;47660;51.334;12.396;2023-03-25T04:54:21;99076.16;;;15.77;63.63
54850;BME280;47660;51.334;12.396;2023-03-25T04:56:48;99050.91;;;15.79;64.13
54850;BME280;47660;51.334;12.396;2023-03-25T04:59:14;99052.44;;;15.39;64.91
54850;BME280;47660;51.334;12.396;2023-03-25T05:01:40;99056.69;;;15.66;64.44
54850;BME280;47660;51.334;12.396;2023-03-25T05:04:11;99040.91;;;15.12;65.43
54850;BME280;47660;51.334;12.396;2023-03-25T05:06:41;99043.13;;;16.11;62.85
54850;BME280;47660;51.334;12.396;2023-03-25T05:09:15;99036.59;;;15.54;64.30
54850;BME280;47660;51.334;12.396;2023-03-25T05:11:44;99042.59;;;15.48;64.06
54850;BME280;47660;51.334;12.396;2023-03-25T05:14:11;99038.09;;;16.08;62.62
54850;BME280;47660;51.334;12.396;2023-03-25T05:16:36;99039.06;;;16.15;62.14
54850;BME280;47660;51.334;12.396;2023-03-25T05:19:02;99039.81;;;15.66;62.89
54850;BME280;47660;51.334;12.396;2023-03-25T05:21:28;99042.84;;;15.79;63.37
54850;BME280;47660;51.334;12.396;2023-03-25T05:23:57;99035.44;;;15.22;64.58
54850;BME280;47660;51.334;12.396;2023-03-25T05:26:26;99039.50;;;15.77;62.93
54850;BME280;47660;51.334;12.396;2023-03-25T05:28:56;99042.69;;;15.81;62.58
54850;BME280;47660;51.334;12.396;2023-03-25T05:31:26;99049.50;;;16.34;60.57
54850;BME280;47660;51.334;12.396;2023-03-25T05:33:51;99034.69;;;15.38;63.85
54850;BME280;47660;51.334;12.396;2023-03-25T05:36:19;99033.91;;;15.54;63.65
54850;BME280;47660;51.334;12.396;2023-03-25T05:38:44;99046.50;;;14.92;63.75
54850;BME280;47660;51.334;12.396;2023-03-25T05:41:14;99045.53;;;14.75;65.83
54850;BME280;47660;51.334;12.396;2023-03-25T05:43:43;99049.34;;;15.68;63.16
54850;BME280;47660;51.334;12.396;2023-03-25T05:46:17;99048.25;;;15.10;64.59
54850;BME280;47660;51.334;12.396;2023-03-25T05:48:43;99050.13;;;15.18;62.41
54850;BME280;47660;51.334;12.396;2023-03-25T05:51:14;99063.28;;;14.76;63.98
54850;BME280;47660;51.334;12.396;2023-03-25T05:53:44;99053.88;;;14.54;65.04
54850;BME280;47660;51.334;12.396;2023-03-25T05:56:14;99063.78;;;14.35;65.13
54850;BME280;47660;51.334;12.396;2023-03-25T05:58:47;99058.22;;;14.91;63.30
54850;BME280;47660;51.334;12.396;2023-03-25T06:01:15;99064.88;;;14.87;63.47
54850;BME280;47660;51.334;12.396;2023-03-25T06:03:42;99079.34;;;15.03;63.01
54850;BME280;47660;51.334;12.396;2023-03-25T06:06:08;99088.66;;;14.98;61.31
54850;BME280;47660;51.334;12.396;2023-03-25T06:08:48;99082.25;;;15.52;60.49
54850;BME280;47660;51.334;12.396;2023-03-25T06:11:16;99080.38;;;14.83;61.53
54850;BME280;47660;51.334;12.396;2023-03-25T06:13:43;99080.69;;;15.07;60.69
54850;BME280;47660;51.334;12.396;2023-03-25T06:16:20;99076.13;;;15.25;60.72
54850;BME280;47660;51.334;12.396;2023-03-25T06:18:47;99077.34;;;15.05;61.11
54850;BME280;47660;51.334;12.396;2023-03-25T06:21:18;99082.53;;;15.06;60.91
54850;BME280;47660;51.334;12.396;2023-03-25T06:23:46;99082.75;;;14.68;62.74
54850;BME280;47660;51.334;12.396;2023-03-25T06:26:17;99085.28;;;15.14;61.12
54850;BME280;47660;51.334;12.396;2023-03-25T06:28:45;99073.59;;;15.24;60.48
54850;BME280;47660;51.334;12.396;2023-03-25T06:31:13;99086.16;;;14.70;62.91
54850;BME280;47660;51.334;12.396;2023-03-25T06:33:43;99074.53;;;15.06;61.67
54850;BME280;47660;51.334;12.396;2023-03-25T06:36:10;99075.66;;;15.04;61.96
54850;BME280;47660;51.334;12.396;2023-03-25T06:38:39;99082.72;;;15.39;61.22
54850;BME280;47660;51.334;12.396;2023-03-25T06:41:08;99075.69;;;15.38;61.07
54850;BME280;47660;51.334;12.396;2023-03-25T06:43:33;99078.81;;;15.25;61.11
54850;BME280;47660;51.334;12.396;2023-03-25T06:45:59;99080.44;;;15.18;61.94
54850;BME280;47660;51.334;12.396;2023-03-25T06:48:24;99079.22;;;15.39;61.68
54850;BME280;47660;51.334;12.396;2023-03-25T06:50:51;99078.00;;;14.80;64.32
54850;BME280;47660;51.334;12.396;2023-03-25T06:53:17;99083.34;;;15.33;64.72
54850;BME280;47660;51.334;12.396;2023-03-25T06:55:42;99092.19;;;14.73;67.13
54850;BME280;47660;51.334;12.396;2023-03-25T06:58:09;99086.41;;;15.12;66.90
54850;BME280;47660;51.334;12.396;2023-03-25T07:00:35;99106.13;;;14.84;65.69
54850;BME280;47660;51.334;12.396;2023-03-25T07:03:05;99086.59;;;14.84;66.40
54850;BME280;47660;51.334;12.396;2023-03-25T07:05:33;99101.72;;;15.02;64.24
54850;BME280;47660;51.334;12.396;2023-03-25T07:07:59;99084.91;;;15.09;63.87
54850;BME280;47660;51.334;12.396;2023-03-25T07:10:24;99092.56;;;15.04;64.09
54850;BME280;47660;51.334;12.396;2023-03-25T07:12:50;99094.19;;;15.23;62.61
54850;BME280;47660;51.334;12.396;2023-03-25T07:15:15;99096.59;;;16.29;59.09
54850;BME280;47660;51.334;12.396;2023-03-25T07:17:41;99086.38;;;16.41;58.73
54850;BME280;47660;51.334;12.396;2023-03-25T07:20:08;99102.03;;;15.94;59.99
54850;BME280;47660;51.334;12.396;2023-03-25T07:22:36;99105.59;;;15.60;61.71
54850;BME280;47660;51.334;12.396;2023-03-25T07:25:04;99108.66;;;16.33;61.87
54850;BME280;47660;51.334;12.396;2023-03-25T07:27:32;99121.16;;;15.99;65.28
54850;BME280;47660;51.334;12.396;2023-03-25T07:29:57;99108.81;;;15.37;64.94
54850;BME280;47660;51.334;12.396;2023-03-25T07:32:23;99124.75;;;15.12;69.31
54850;BME280;47660;51.334;12.396;2023-03-25T07:34:48;99132.50;;;14.61;68.33
54850;BME280;47660;51.334;12.396;2023-03-25T07:37:13;99128.13;;;14.60;72.35
54850;BME280;47660;51.334;12.396;2023-03-25T07:39:41;99132.38;;;14.45;73.61
54850;BME280;47660;51.334;12.396;2023-03-25T07:42:06;99145.66;;;14.36;76.38
54850;BME280;47660;51.334;12.396;2023-03-25T07:44:34;99122.72;;;14.88;73.02
54850;BME280;47660;51.334;12.396;2023-03-25T07:47:02;99136.09;;;14.88;71.32
54850;BME280;47660;51.334;12.396;2023-03-25T07:49:27;99120.81;;;15.33;70.27
54850;BME280;47660;51.334;12.396;2023-03-25T07:51:52;99123.50;;;15.33;68.53
54850;BME280;47660;51.334;12.396;2023-03-25T07:54:18;99119.56;;;15.80;68.14
54850;BME280;47660;51.334;12.396;2023-03-25T07:56:46;99124.34;;;16.11;65.82
54850;BME280;47660;51.334;12.396;2023-03-25T07:59:15;99112.50;;;15.79;66.58
54850;BME280;47660;51.334;12.396;2023-03-25T08:01:42;99122.78;;;15.57;66.22
54850;BME280;47660;51.334;12.396;2023-03-25T08:04:10;99121.22;;;15.81;66.97
54850;BME280;47660;51.334;12.396;2023-03-25T08:06:38;99134.09;;;15.43;66.08
54850;BME280;47660;51.334;12.396;2023-03-25T08:09:04;99121.78;;;15.58;66.97
54850;BME280;47660;51.334;12.396;2023-03-25T08:11:29;99126.56;;;15.73;66.26
54850;BME280;47660;51.334;12.396;2023-03-25T08:13:55;99124.88;;;15.37;68.70
54850;BME280;47660;51.334;12.396;2023-03-25T08:16:20;99120.16;;;15.31;70.08
54850;BME280;47660;51.334;12.396;2023-03-25T08:18:45;99136.13;;;15.49;70.08
54850;BME280;47660;51.334;12.396;2023-03-25T08:21:12;99118.13;;;15.94;68.90
54850;BME280;47660;51.334;12.396;2023-03-25T08:23:37;99131.19;;;14.83;73.68
54850;BME280;47660;51.334;12.396;2023-03-25T08:26:03;99130.03;;;15.65;72.45
54850;BME280;47660;51.334;12.396;2023-03-25T08:28:31;99131.97;;;16.82;67.68
54850;BME280;47660;51.334;12.396;2023-03-25T08:30:57;99129.41;;;16.23;69.00
54850;BME280;47660;51.334;12.396;2023-03-25T08:33:29;99144.31;;;15.74;70.65
54850;BME280;47660;51.334;12.396;2023-03-25T08:36:01;99137.28;;;16.24;69.84
54850;BME280;47660;51.334;12.396;2023-03-25T08:38:29;99138.84;;;15.57;71.54
54850;BME280;47660;51.334;12.396;2023-03-25T08:40:59;99147.75;;;15.93;70.29
54850;BME280;47660;51.334;12.396;2023-03-25T08:43:28;99144.38;;;15.91;69.70
54850;BME280;47660;51.334;12.396;2023-03-25T08:45:55;99145.84;;;15.15;74.62
54850;BME280;47660;51.334;12.396;2023-03-25T08:48:21;99145.09;;;15.66;74.52
54850;BME280;47660;51.334;12.396;2023-03-25T08:50:47;99145.22;;;15.91;71.50
54850;BME280;47660;51.334;12.396;2023-03-25T08:53:12;99148.16;;;15.19;76.70
54850;BME280;47660;51.334;12.396;2023-03-25T08:55:38;99145.66;;;15.43;76.21
54850;BME280;47660;51.334;12.396;2023-03-25T08:58:06;99138.09;;;16.08;74.39
54850;BME280;47660;51.334;12.396;2023-03-25T09:00:34;99144.22;;;15.05;76.44
54850;BME280;47660;51.334;12.396;2023-03-25T09:03:01;99149.06;;;15.54;75.08
54850;BME280;47660;51.334;12.396;2023-03-25T09:05:29;99143.63;;;16.23;72.12
54850;BME280;47660;51.334;12.396;2023-03-25T09:07:54;99145.34;;;16.32;70.00
54850;BME280;47660;51.334;12.396;2023-03-25T09:10:22;99145.72;;;16.71;67.27
54850;BME280;47660;51.334;12.396;2023-03-25T09:12:48;99135.28;;;16.26;68.12
54850;BME280;47660;51.334;12.396;2023-03-25T09:15:13;99142.19;;;16.62;66.34
54850;BME280;47660;51.334;12.396;2023-03-25T09:17:39;99128.25;;;16.33;67.95
54850;BME280;47660;51.334;12.396;2023-03-25T09:20:07;99119.06;;;16.36;65.96
54850;BME280;47660;51.334;12.396;2023-03-25T09:22:34;99119.06;;;17.02;62.49
54850;BME280;47660;51.334;12.396;2023-03-25T09:24:59;99112.50;;;16.39;62.11
54850;BME280;47660;51.334;12.396;2023-03-25T09:27:27;99119.56;;;16.56;61.00
54850;BME280;47660;51.334;12.396;2023-03-25T09:29:55;99115.53;;;16.36;61.41
54850;BME280;47660;51.334;12.396;2023-03-25T09:32:20;99116.00;;;16.23;62.00
54850;BME280;47660;51.334;12.396;2023-03-25T09:34:46;99111.09;;;16.01;59.98
54850;BME280;47660;51.334;12.396;2023-03-25T09:37:12;99105.47;;;16.71;58.65
54850;BME280;47660;51.334;12.396;2023-03-25T09:39:38;99107.16;;;16.88;57.56
54850;BME280;47660;51.334;12.396;2023-03-25T09:44:57;99112.81;;;16.27;58.26
54850;BME280;47660;51.334;12.396;2023-03-25T09:47:27;99115.09;;;15.89;59.81
54850;BME280;47660;51.334;12.396;2023-03-25T09:49:56;99114.09;;;15.98;59.92
54850;BME280;47660;51.334;12.396;2023-03-25T09:52:28;99119.38;;;16.41;58.87
54850;BME280;47660;51.334;12.396;2023-03-25T09:55:06;99122.75;;;16.76;57.57
54850;BME280;47660;51.334;12.396;2023-03-25T09:57:40;99120.41;;;17.06;57.54
54850;BME280;47660;51.334;12.396;2023-03-25T10:00:16;99119.84;;;16.12;59.38
54850;BME280;47660;51.334;12.396;2023-03-25T10:02:47;99121.25;;;16.49;58.59
54850;BME280;47660;51.334;12.396;2023-03-25T10:08:05;99116.31;;;16.11;56.96
54850;BME280;47660;51.334;12.396;2023-03-25T10:18:28;99110.34;;;17.08;53.67
54850;BME280;47660;51.334;12.396;2023-03-25T10:21:22;99095.44;;;17.94;52.59
54850;BME280;47660;51.334;12.396;2023-03-25T10:24:02;99094.72;;;18.93;49.10
54850;BME280;47660;51.334;12.396;2023-03-25T10:26:44;99098.78;;;17.96;50.79
54850;BME280;47660;51.334;12.396;2023-03-25T10:29:17;99097.38;;;17.20;52.58
54850;BME280;47660;51.334;12.396;2023-03-25T10:32:05;99089.22;;;16.81;53.91
54850;BME280;47660;51.334;12.396;2023-03-25T10:34:43;99093.72;;;17.70;52.06
54850;BME280;47660;51.334;12.396;2023-03-25T10:37:26;99096.09;;;17.08;54.26
54850;BME280;47660;51.334;12.396;2023-03-25T10:39:54;99110.28;;;16.09;55.74
54850;BME280;47660;51.334;12.396;2023-03-25T10:42:34;99112.00;;;16.27;54.19
54850;BME280;47660;51.334;12.396;2023-03-25T10:45:11;99109.31;;;16.93;52.82
54850;BME280;47660;51.334;12.396;2023-03-25T10:47:42;99109.16;;;16.95;52.84
54850;BME280;47660;51.334;12.396;2023-03-25T10:50:15;99118.84;;;17.37;51.32
54850;BME280;47660;51.334;12.396;2023-03-25T10:52:42;99103.38;;;17.47;51.52
54850;BME280;47660;51.334;12.396;2023-03-25T10:55:24;99090.13;;;17.77;50.36
54850;BME280;47660;51.334;12.396;2023-03-25T10:57:53;99117.50;;;17.81;50.28
54850;BME280;47660;51.334;12.396;2023-03-25T11:00:22;99108.16;;;16.71;52.35
54850;BME280;47660;51.334;12.396;2023-03-25T11:02:51;99103.94;;;17.26;51.75
54850;BME280;47660;51.334;12.396;2023-03-25T11:05:21;99107.16;;;16.88;51.67
54850;BME280;47660;51.334;12.396;2023-03-25T11:07:50;99106.97;;;16.90;51.65
54850;BME280;47660;51.334;12.396;2023-03-25T11:12:45;99107.66;;;16.67;51.05
54850;BME280;47660;51.334;12.396;2023-03-25T11:17:46;99110.34;;;16.51;51.01
54850;BME280;47660;51.334;12.396;2023-03-25T11:20:19;99102.13;;;16.93;50.43
54850;BME280;47660;51.334;12.396;2023-03-25T11:22:49;99101.47;;;17.00;50.72
54850;BME280;47660;51.334;12.396;2023-03-25T11:25:25;99104.44;;;17.13;51.37
54850;BME280;47660;51.334;12.396;2023-03-25T11:28:19;99110.00;;;17.03;51.22
54850;BME280;47660;51.334;12.396;2023-03-25T11:33:40;99087.34;;;16.89;51.99
54850;BME280;47660;51.334;12.396;2023-03-25T11:36:53;99091.84;;;17.30;50.80
54850;BME280;47660;51.334;12.396;2023-03-25T11:41:55;99061.84;;;18.45;47.69
54850;BME280;47660;51.334;12.396;2023-03-25T11:46:51;99065.31;;;18.07;47.97
54850;BME280;47660;51.334;12.396;2023-03-25T11:49:20;99056.13;;;18.01;47.94
54850;BME280;47660;51.334;12.396;2023-03-25T11:51:49;99064.94;;;17.78;47.66
54850;BME280;47660;51.334;12.396;2023-03-25T11:54:16;99047.72;;;17.96;47.52
54850;BME280;47660;51.334;12.396;2023-03-25T11:56:43;99039.31;;;19.14;45.38
54850;BME280;47660;51.334;12.396;2023-03-25T12:01:48;99042.50;;;18.79;45.26
54850;BME280;47660;51.334;12.396;2023-03-25T12:06:58;99029.16;;;18.09;46.76
54850;BME280;47660;51.334;12.396;2023-03-25T12:09:25;99027.00;;;18.28;47.40
54850;BME280;47660;51.334;12.396;2023-03-25T12:17:55;99032.84;;;17.54;55.64
54850;BME280;47660;51.334;12.396;2023-03-25T12:26:15;99047.97;;;16.15;66.08
54850;BME280;47660;51.334;12.396;2023-03-25T12:29:02;99047.00;;;15.73;75.57
54850;BME280;47660;51.334;12.396;2023-03-25T12:32:09;99029.53;;;17.35;72.76
54850;BME280;47660;51.334;12.396;2023-03-25T12:34:43;99032.16;;;17.51;69.17
54850;BME280;47660;51.334;12.396;2023-03-25T12:37:41;99019.53;;;18.38;65.34
54850;BME280;47660;51.334;12.396;2023-03-25T12:43:10;98997.28;;;18.45;64.17
54850;BME280;47660;51.334;12.396;2023-03-25T12:45:41;98986.88;;;18.41;60.88
54850;BME280;47660;51.334;12.396;2023-03-25T12:54:10;98949.16;;;18.50;53.61
54850;BME280;47660;51.334;12.396;2023-03-25T12:56:52;98950.13;;;20.19;51.59
54850;BME280;47660;51.334;12.396;2023-03-25T13:05:13;98966.69;;;18.61;50.82
54850;BME280;47660;51.334;12.396;2023-03-25T13:07:51;99003.31;;;17.05;55.61
54850;BME280;47660;51.334;12.396;2023-03-25T13:12:50;99041.03;;;15.02;78.23
54850;BME280;47660;51.334;12.396;2023-03-25T13:15:44;99078.97;;;14.35;100.00
54850;BME280;47660;51.334;12.396;2023-03-25T13:18:16;99078.41;;;13.49;100.00
54850;BME280;47660;51.334;12.396;2023-03-25T13:20:59;99085.53;;;13.58;100.00
54850;BME280;47660;51.334;12.396;2023-03-25T13:23:32;99081.38;;;13.46;100.00
54850;BME280;47660;51.334;12.396;2023-03-25T13:26:01;99074.06;;;13.38;100.00
54850;BME280;47660;51.334;12.396;2023-03-25T13:28:48;99052.94;;;14.01;100.00
54850;BME280;47660;51.334;12.396;2023-03-25T13:31:21;99067.50;;;13.88;100.00
54850;BME280;47660;51.334;12.396;2023-03-25T13:34:04;99045.09;;;13.53;100.00
54850;BME280;47660;51.334;12.396;2023-03-25T13:36:34;99033.19;;;13.37;100.00
54850;BME280;47660;51.334;12.396;2023-03-25T13:39:08;99034.75;;;14.04;100.00
54850;BME280;47660;51.334;12.396;2023-03-25T13:41:49;99032.09;;;14.04;100.00
54850;BME280;47660;51.334;12.396;2023-03-25T13:44:24;99030.25;;;14.67;100.00
54850;BME280;47660;51.334;12.396;2023-03-25T13:46:56;99021.63;;;15.43;98.66
54850;BME280;47660;51.334;12.396;2023-03-25T13:52:16;99008.22;;;14.47;100.00
54850;BME280;47660;51.334;12.396;2023-03-25T13:54:56;99010.66;;;15.11;92.46
54850;BME280;47660;51.334;12.396;2023-03-25T14:11:33;99016.88;;;18.68;60.69
54850;BME280;47660;51.334;12.396;2023-03-25T14:14:08;99038.31;;;17.20;62.67
54850;BME280;47660;51.334;12.396;2023-03-25T14:16:49;99037.34;;;17.85;63.12
54850;BME280;47660;51.334;12.396;2023-03-25T14:19:21;99035.59;;;19.60;54.83
54850;BME280;47660;51.334;12.396;2023-03-25T14:21:51;99041.38;;;18.59;55.86
54850;BME280;47660;51.334;12.396;2023-03-25T14:24:26;99045.63;;;17.43;61.25
54850;BME280;47660;51.334;12.396;2023-03-25T14:34:47;99031.19;;;16.80;58.73
54850;BME280;47660;51.334;12.396;2023-03-25T14:37:23;99018.41;;;23.23;43.04
54850;BME280;47660;51.334;12.396;2023-03-25T14:39:52;99027.38;;;21.96;41.05
54850;BME280;47660;51.334;12.396;2023-03-25T14:42:22;99024.16;;;23.93;39.12
54850;BME280;47660;51.334;12.396;2023-03-25T14:44:50;99004.91;;;24.84;37.02
54850;BME280;47660;51.334;12.396;2023-03-25T14:52:15;99027.19;;;27.59;30.43
54850;BME280;47660;51.334;12.396;2023-03-25T14:54:43;99025.97;;;25.81;33.26
54850;BME280;47660;51.334;12.396;2023-03-25T14:57:31;99025.16;;;25.62;32.77
54850;BME280;47660;51.334;12.396;2023-03-25T15:00:04;99041.13;;;20.10;42.71
54850;BME280;47660;51.334;12.396;2023-03-25T15:02:34;99037.78;;;17.96;49.58
54850;BME280;47660;51.334;12.396;2023-03-25T15:05:14;99043.59;;;19.08;47.54
54850;BME280;47660;51.334;12.396;2023-03-25T15:08:14;99039.06;;;19.39;46.14
54850;BME280;47660;51.334;12.396;2023-03-25T15:10:44;99030.59;;;19.12;48.51
54850;BME280;47660;51.334;12.396;2023-03-25T15:13:28;99023.13;;;18.84;48.83
54850;BME280;47660;51.334;12.396;2023-03-25T15:16:18;99035.38;;;18.10;51.74
54850;BME280;47660;51.334;12.396;2023-03-25T15:21:16;99046.81;;;16.43;56.12
54850;BME280;47660;51.334;12.396;2023-03-25T15:26:33;99031.88;;;16.65;57.49